createdAt,value
2019-03-04T00:00:51.806Z,99.90
2019-03-04T00:03:29.426Z,99.90
2019-03-04T00:06:08.164Z,99.90
2019-03-04T00:08:46.886Z,99.90
2019-03-04T00:11:40.433Z,99.90
2019-03-04T00:14:19.223Z,99.90
2019-03-04T00:16:56.917Z,99.90
2019-03-04T00:19:34.249Z,99.90
2019-03-04T00:22:12.493Z,99.90
2019-03-04T00:24:49.933Z,99.90
2019-03-04T00:27:28.144Z,99.90
2019-03-04T00:30:06.067Z,99.90
2019-03-04T00:32:45.141Z,99.90
2019-03-04T00:35:22.191Z,99.90
2019-03-04T00:38:00.107Z,99.90
2019-03-04T00:40:38.553Z,99.90
2019-03-04T00:43:16.007Z,99.90
2019-03-04T00:45:54.335Z,99.90
2019-03-04T00:48:32.370Z,99.90
2019-03-04T00:51:11.787Z,99.90
2019-03-04T00:53:49.291Z,99.90
2019-03-04T00:56:26.942Z,99.90
2019-03-04T00:59:04.502Z,99.90
2019-03-04T01:01:44.185Z,99.90
2019-03-04T01:04:22.343Z,99.90
2019-03-04T01:06:59.670Z,99.90
2019-03-04T01:09:37.569Z,99.90
2019-03-04T01:12:16.358Z,99.90
2019-03-04T01:14:53.759Z,99.90
2019-03-04T01:17:32.825Z,99.90
2019-03-04T01:20:12.972Z,99.90
2019-03-04T01:22:51.065Z,99.90
2019-03-04T01:25:28.650Z,99.90
2019-03-04T01:28:06.439Z,99.90
2019-03-04T01:30:43.942Z,99.90
2019-03-04T01:33:21.368Z,99.90
2019-03-04T01:36:00.258Z,99.90
2019-03-04T01:38:37.938Z,99.90
2019-03-04T01:41:16.392Z,99.90
2019-03-04T01:43:54.841Z,99.90
2019-03-04T01:46:33.725Z,99.90
2019-03-04T01:49:11.098Z,99.90
2019-03-04T01:51:48.894Z,99.90
2019-03-04T01:54:28.472Z,99.90
2019-03-04T01:57:07.144Z,99.90
2019-03-04T01:59:46.426Z,99.90
2019-03-04T02:02:23.748Z,99.90
2019-03-04T02:05:01.670Z,99.90
2019-03-04T02:07:39.440Z,99.90
2019-03-04T02:10:19.507Z,99.90
2019-03-04T02:12:58.513Z,99.90
2019-03-04T02:15:36.083Z,99.90
2019-03-04T02:18:13.753Z,99.90
2019-03-04T02:20:52.823Z,99.90
2019-03-04T02:23:30.525Z,99.90
2019-03-04T02:26:11.100Z,99.90
2019-03-04T02:28:59.831Z,99.90
2019-03-04T02:31:48.965Z,99.90
2019-03-04T02:34:26.568Z,99.90
2019-03-04T02:37:04.042Z,99.90
2019-03-04T02:39:41.294Z,99.90
2019-03-04T02:42:19.722Z,99.90
2019-03-04T02:44:58.342Z,99.90
2019-03-04T02:47:37.629Z,99.90
2019-03-04T02:50:15.762Z,99.90
2019-03-04T02:53:05.216Z,99.90
2019-03-04T02:55:44.452Z,99.90
2019-03-04T02:58:22.063Z,99.90
2019-03-04T03:01:02.268Z,99.90
2019-03-04T03:03:51.249Z,99.90
2019-03-04T03:06:28.904Z,99.90
2019-03-04T03:09:08.339Z,99.90
2019-03-04T03:11:48.591Z,99.90
2019-03-04T03:14:26.007Z,99.90
2019-03-04T03:17:05.230Z,99.90
2019-03-04T03:19:42.605Z,99.90
2019-03-04T03:22:20.302Z,99.90
2019-03-04T03:24:59.304Z,99.90
2019-03-04T03:27:36.586Z,99.90
2019-03-04T03:30:25.874Z,99.90
2019-03-04T03:33:03.324Z,99.90
2019-03-04T03:35:40.652Z,99.90
2019-03-04T03:38:19.518Z,99.90
2019-03-04T03:40:59.215Z,99.90
2019-03-04T03:43:37.854Z,99.90
2019-03-04T03:46:15.228Z,99.90
2019-03-04T03:48:54.860Z,99.90
2019-03-04T03:51:32.300Z,99.90
2019-03-04T03:54:09.609Z,99.90
2019-03-04T03:56:48.288Z,99.90
2019-03-04T03:59:25.538Z,99.90
2019-03-04T04:02:04.674Z,99.90
2019-03-04T04:04:44.247Z,99.90
2019-03-04T04:07:22.817Z,99.90
2019-03-04T04:10:01.808Z,99.90
2019-03-04T04:12:40.703Z,99.90
2019-03-04T04:15:27.564Z,99.90
2019-03-04T04:18:05.089Z,99.90
2019-03-04T04:20:42.983Z,99.90
2019-03-04T04:23:20.417Z,99.90
2019-03-04T04:25:58.119Z,99.90
2019-03-04T04:28:38.426Z,99.90
2019-03-04T04:31:15.685Z,99.90
2019-03-04T04:33:55.167Z,99.90
2019-03-04T04:36:34.573Z,99.90
2019-03-04T04:39:24.229Z,99.90
2019-03-04T04:42:02.664Z,99.90
2019-03-04T04:44:40.205Z,99.90
2019-03-04T04:47:18.927Z,99.90
2019-03-04T04:49:57.324Z,99.90
2019-03-04T04:52:47.655Z,99.90
2019-03-04T04:55:25.814Z,99.90
2019-03-04T04:58:03.179Z,99.90
2019-03-04T05:00:42.376Z,99.90
2019-03-04T05:03:22.028Z,99.90
2019-03-04T05:05:59.788Z,99.90
2019-03-04T05:08:37.553Z,99.90
2019-03-04T05:11:15.206Z,99.90
2019-03-04T05:13:54.557Z,99.90
2019-03-04T05:16:32.562Z,99.90
2019-03-04T05:19:13.175Z,99.90
2019-03-04T05:21:51.184Z,99.90
2019-03-04T05:24:33.141Z,99.90
2019-03-04T05:27:10.747Z,99.90
2019-03-04T05:29:48.112Z,99.90
2019-03-04T05:32:25.843Z,99.90
2019-03-04T05:35:03.447Z,99.90
2019-03-04T05:37:42.623Z,99.90
2019-03-04T05:40:21.237Z,99.90
2019-03-04T05:42:59.731Z,99.90
2019-03-04T05:45:37.435Z,99.90
2019-03-04T05:48:14.925Z,99.90
2019-03-04T05:50:52.382Z,99.90
2019-03-04T05:53:30.105Z,99.90
2019-03-04T05:56:07.865Z,99.90
2019-03-04T05:58:45.241Z,99.90
2019-03-04T06:01:28.197Z,99.90
2019-03-04T06:04:07.806Z,99.90
2019-03-04T06:06:52.403Z,99.90
2019-03-04T06:09:29.601Z,99.90
2019-03-04T06:12:07.541Z,99.90
2019-03-04T06:14:45.165Z,99.90
2019-03-04T06:17:22.285Z,99.90
2019-03-04T06:19:59.510Z,99.90
2019-03-04T06:22:36.921Z,99.90
2019-03-04T06:25:16.715Z,99.90
2019-03-04T06:27:54.361Z,99.90
2019-03-04T06:30:31.745Z,99.90
2019-03-04T06:33:09.126Z,99.90
2019-03-04T06:35:46.724Z,99.90
2019-03-04T06:38:24.013Z,99.90
2019-03-04T06:41:07.507Z,99.90
2019-03-04T06:43:44.782Z,99.90
2019-03-04T06:46:22.166Z,99.90
2019-03-04T06:48:59.882Z,99.90
2019-03-04T06:51:42.174Z,99.90
2019-03-04T06:55:07.154Z,99.90
2019-03-04T06:57:53.240Z,99.90
2019-03-04T07:00:53.664Z,99.90
2019-03-04T07:03:33.750Z,99.90
2019-03-04T07:06:11.059Z,99.90
2019-03-04T07:09:18.240Z,99.90
2019-03-04T07:11:57.314Z,99.90
2019-03-04T07:14:34.684Z,99.90
2019-03-04T07:17:12.079Z,99.90
2019-03-04T07:20:05.969Z,99.90
2019-03-04T07:22:43.258Z,99.90
2019-03-04T07:25:20.885Z,99.90
2019-03-04T07:27:58.208Z,99.90
2019-03-04T07:30:35.632Z,99.90
2019-03-04T07:33:12.841Z,99.90
2019-03-04T07:35:50.019Z,99.90
2019-03-04T07:38:52.367Z,99.90
2019-03-04T07:41:32.216Z,99.90
2019-03-04T07:44:09.564Z,99.90
2019-03-04T07:46:46.850Z,99.90
2019-03-04T07:49:24.238Z,99.90
2019-03-04T07:52:01.797Z,99.90
2019-03-04T07:54:39.027Z,99.90
2019-03-04T07:57:16.414Z,99.90
2019-03-04T07:59:53.901Z,99.90
2019-03-04T08:02:31.111Z,99.90
2019-03-04T08:05:09.055Z,99.90
2019-03-04T08:07:49.511Z,99.90
2019-03-04T08:11:06.721Z,99.90
2019-03-04T08:13:52.512Z,99.90
2019-03-04T08:16:30.126Z,99.90
2019-03-04T08:19:09.039Z,99.90
2019-03-04T08:21:46.311Z,99.90
2019-03-04T08:24:23.423Z,99.90
2019-03-04T08:27:01.072Z,99.90
2019-03-04T08:29:38.375Z,99.90
2019-03-04T08:32:15.631Z,99.90
2019-03-04T08:34:53.700Z,99.90
2019-03-04T08:37:31.295Z,99.90
2019-03-04T08:40:10.497Z,99.90
2019-03-04T08:42:47.771Z,99.90
2019-03-04T08:45:25.160Z,99.90
2019-03-04T08:48:03.000Z,99.90
2019-03-04T08:50:41.214Z,99.90
2019-03-04T08:53:18.572Z,99.90
2019-03-04T08:55:55.942Z,99.90
2019-03-04T08:58:34.419Z,99.90
2019-03-04T09:01:11.981Z,99.90
2019-03-04T09:03:49.394Z,99.30
2019-03-04T09:06:27.668Z,99.60
2019-03-04T09:09:07.684Z,99.70
2019-03-04T09:11:45.270Z,99.80
2019-03-04T09:14:22.472Z,99.60
2019-03-04T09:17:00.290Z,99.80
2019-03-04T09:19:38.001Z,99.60
2019-03-04T09:22:15.383Z,99.20
2019-03-04T09:24:52.917Z,99.30
2019-03-04T09:27:30.824Z,99.40
2019-03-04T09:30:09.365Z,98.80
2019-03-04T09:32:46.795Z,97.80
2019-03-04T09:35:25.390Z,96.00
2019-03-04T09:38:02.950Z,91.80
2019-03-04T09:40:41.681Z,90.10
2019-03-04T09:43:19.492Z,91.80
2019-03-04T09:45:57.329Z,93.00
2019-03-04T09:48:35.094Z,94.00
2019-03-04T09:51:12.417Z,95.80
2019-03-04T09:53:50.124Z,96.40
2019-03-04T09:56:28.341Z,96.90
2019-03-04T09:59:07.078Z,96.40
2019-03-04T10:01:51.350Z,96.00
2019-03-04T10:05:37.378Z,96.30
2019-03-04T10:08:33.149Z,96.50
2019-03-04T10:11:37.546Z,95.30
2019-03-04T10:14:56.636Z,95.90
2019-03-04T10:17:58.764Z,97.10
2019-03-04T10:20:51.436Z,98.00
2019-03-04T10:24:05.290Z,97.80
2019-03-04T10:27:08.284Z,98.50
2019-03-04T10:30:27.404Z,98.60
2019-03-04T10:33:40.895Z,98.50
2019-03-04T10:36:49.675Z,99.10
2019-03-04T10:39:39.566Z,98.70
2019-03-04T10:42:53.240Z,98.80
2019-03-04T10:45:56.156Z,98.70
2019-03-04T10:48:33.415Z,98.90
2019-03-04T10:51:10.804Z,99.10
2019-03-04T10:53:48.568Z,99.00
2019-03-04T10:56:26.317Z,99.00
2019-03-04T10:59:05.107Z,99.00
2019-03-04T11:01:43.259Z,98.80
2019-03-04T11:04:20.725Z,98.80
2019-03-04T11:06:58.180Z,99.00
2019-03-04T11:09:36.001Z,98.70
2019-03-04T11:12:14.194Z,98.90
2019-03-04T11:14:51.735Z,98.80
2019-03-04T11:17:29.229Z,99.00
2019-03-04T11:20:07.035Z,99.10
2019-03-04T11:22:44.461Z,98.90
2019-03-04T11:25:22.322Z,98.80
2019-03-04T11:27:59.930Z,98.80
2019-03-04T11:30:49.374Z,98.70
2019-03-04T11:33:26.862Z,98.40
2019-03-04T11:36:04.328Z,98.10
2019-03-04T11:38:44.189Z,97.90
2019-03-04T11:41:32.711Z,97.90
2019-03-04T11:44:10.512Z,97.90
2019-03-04T11:46:47.734Z,97.80
2019-03-04T11:49:25.028Z,97.60
2019-03-04T11:52:02.804Z,97.70
2019-03-04T11:54:41.485Z,97.60
2019-03-04T11:57:18.706Z,97.20
2019-03-04T11:59:56.082Z,96.40
2019-03-04T12:02:39.004Z,95.90
2019-03-04T12:05:14.273Z,95.30
2019-03-04T12:07:51.808Z,95.20
2019-03-04T12:10:29.718Z,95.80
2019-03-04T12:13:07.323Z,96.00
2019-03-04T12:15:46.125Z,95.80
2019-03-04T12:18:23.657Z,94.80
2019-03-04T12:21:01.509Z,94.80
2019-03-04T12:23:40.442Z,95.30
2019-03-04T12:26:18.734Z,95.90
2019-03-04T12:28:56.203Z,96.90
2019-03-04T12:31:38.610Z,97.20
2019-03-04T12:34:24.938Z,97.20
2019-03-04T12:37:02.119Z,96.80
2019-03-04T12:39:39.596Z,96.90
2019-03-04T12:51:23.296Z,98.30
2019-03-04T12:53:58.385Z,98.50
2019-03-04T12:56:35.794Z,98.50
2019-03-04T12:59:12.894Z,98.30
2019-03-04T13:01:50.380Z,98.60
2019-03-04T13:04:27.800Z,98.90
2019-03-04T13:07:05.433Z,99.00
2019-03-04T13:09:42.831Z,99.10
2019-03-04T13:12:25.823Z,99.60
2019-03-04T13:15:03.284Z,99.00
2019-03-04T13:17:41.310Z,98.80
2019-03-04T13:20:18.721Z,98.30
2019-03-04T13:22:55.857Z,95.80
2019-03-04T13:25:35.465Z,94.60
2019-03-04T13:28:13.045Z,94.80
2019-03-04T13:30:50.128Z,94.80
2019-03-04T13:33:27.302Z,94.90
2019-03-04T13:36:06.785Z,94.60
2019-03-04T13:39:00.040Z,94.30
2019-03-04T13:41:38.208Z,94.90
2019-03-04T13:44:15.490Z,95.20
2019-03-04T13:46:53.403Z,95.70
2019-03-04T13:49:42.942Z,95.40
2019-03-04T13:52:20.660Z,94.60
2019-03-04T13:54:57.867Z,94.80
2019-03-04T13:57:35.710Z,94.90
2019-03-04T14:00:17.594Z,95.10
2019-03-04T14:02:54.908Z,95.10
2019-03-04T14:05:34.368Z,95.60
2019-03-04T14:08:11.627Z,96.00
2019-03-04T14:10:49.010Z,95.90
2019-03-04T14:13:26.921Z,95.80
2019-03-04T14:16:04.346Z,95.80
2019-03-04T14:18:42.052Z,95.90
2019-03-04T14:21:22.848Z,95.90
2019-03-04T14:24:00.177Z,95.70
2019-03-04T14:26:39.981Z,95.90
2019-03-04T14:29:25.360Z,95.70
2019-03-04T14:32:03.058Z,95.50
2019-03-04T14:34:40.622Z,95.20
2019-03-04T14:37:18.876Z,95.00
2019-03-04T14:39:56.209Z,94.80
2019-03-04T14:42:33.944Z,94.50
2019-03-04T14:45:13.697Z,93.90
2019-03-04T14:47:51.029Z,93.70
2019-03-04T14:50:43.936Z,92.20
2019-03-04T14:53:21.205Z,91.80
2019-03-04T14:55:58.578Z,92.00
2019-03-04T14:58:35.943Z,92.70
2019-03-04T15:01:13.235Z,92.40
2019-03-04T15:03:50.601Z,91.10
2019-03-04T15:06:27.918Z,90.60
2019-03-04T15:09:08.149Z,90.80
2019-03-04T15:11:46.239Z,91.40
2019-03-04T15:14:23.568Z,92.10
2019-03-04T15:17:03.560Z,92.80
2019-03-04T15:19:39.814Z,92.90
2019-03-04T15:22:17.141Z,93.40
2019-03-04T15:24:54.819Z,93.30
2019-03-04T15:27:32.111Z,93.80
2019-03-04T15:30:11.358Z,94.60
2019-03-04T15:32:48.768Z,97.30
2019-03-04T15:35:26.249Z,99.00
2019-03-04T15:38:03.541Z,99.90
2019-03-04T15:40:40.961Z,99.90
2019-03-04T15:43:18.312Z,99.90
2019-03-04T15:45:56.224Z,99.90
2019-03-04T15:48:33.709Z,99.90
2019-03-04T15:51:23.544Z,99.90
2019-03-04T15:54:00.872Z,99.90
2019-03-04T15:56:38.544Z,99.90
2019-03-04T15:59:27.666Z,99.90
2019-03-04T16:02:08.827Z,99.90
2019-03-04T16:04:46.295Z,99.90
2019-03-04T16:07:23.613Z,99.90
2019-03-04T16:10:00.956Z,99.90
2019-03-04T16:12:39.267Z,99.90
2019-03-04T16:15:17.573Z,99.90
2019-03-04T16:17:55.303Z,99.90
2019-03-04T16:20:32.755Z,99.90
2019-03-04T16:23:11.371Z,99.90
2019-03-04T16:25:54.706Z,99.90
2019-03-04T16:28:32.091Z,99.90
2019-03-04T16:31:09.683Z,99.90
2019-03-04T16:33:47.094Z,99.90
2019-03-04T16:36:25.966Z,99.90
2019-03-04T16:39:04.791Z,99.80
2019-03-04T16:41:43.271Z,99.50
2019-03-04T16:44:20.624Z,99.80
2019-03-04T16:46:57.856Z,99.90
2019-03-04T16:49:35.319Z,99.90
2019-03-04T16:52:25.105Z,99.90
2019-03-04T16:55:02.627Z,99.90
2019-03-04T16:57:42.264Z,99.90
2019-03-04T17:00:20.741Z,99.90
2019-03-04T17:02:57.950Z,99.90
2019-03-04T17:05:35.904Z,99.90
2019-03-04T17:08:13.558Z,99.90
2019-03-04T17:10:51.064Z,99.90
2019-03-04T17:13:50.841Z,99.90
2019-03-04T17:16:31.293Z,99.90
2019-03-04T17:19:09.254Z,99.90
2019-03-04T17:21:46.704Z,99.90
2019-03-04T17:24:23.992Z,99.90
2019-03-04T17:27:01.511Z,99.90
2019-03-04T17:29:40.239Z,99.80
2019-03-04T17:32:17.817Z,99.80
2019-03-04T17:34:55.260Z,99.80
2019-03-04T17:37:32.790Z,99.90
2019-03-04T17:40:11.622Z,99.50
2019-03-04T17:44:30.060Z,98.80
2019-03-04T17:47:07.414Z,99.40
2019-03-04T17:49:44.955Z,99.00
2019-03-04T17:52:22.588Z,98.90
2019-03-04T17:55:01.071Z,98.60
2019-03-04T17:57:40.191Z,98.30
2019-03-04T18:00:17.959Z,98.00
2019-03-04T18:02:55.789Z,97.40
2019-03-04T18:05:32.977Z,97.10
2019-03-04T18:08:10.927Z,96.60
2019-03-04T18:10:49.442Z,96.80
2019-03-04T18:13:27.853Z,96.60
2019-03-04T18:16:07.256Z,96.20
2019-03-04T18:18:44.859Z,96.60
2019-03-04T18:21:22.110Z,96.70
2019-03-04T18:23:59.964Z,96.80
2019-03-04T18:27:05.263Z,97.00
2019-03-04T18:30:36.469Z,97.20
2019-03-04T18:34:10.136Z,97.10
2019-03-04T18:37:02.679Z,97.20
2019-03-04T18:40:08.268Z,97.20
2019-03-04T18:43:27.327Z,97.20
2019-03-04T18:46:44.925Z,97.30
2019-03-04T18:49:22.311Z,97.60
2019-03-04T18:51:59.720Z,97.90
2019-03-04T18:54:37.269Z,97.80
2019-03-04T18:57:14.647Z,98.00
2019-03-04T18:59:51.992Z,97.90
2019-03-04T19:02:29.348Z,97.20
2019-03-04T19:05:06.946Z,97.40
2019-03-04T19:07:45.190Z,97.40
2019-03-04T19:10:24.026Z,97.40
2019-03-04T19:13:02.249Z,97.50
2019-03-04T19:15:39.760Z,97.30
2019-03-04T19:19:57.260Z,97.10
2019-03-04T19:22:35.022Z,97.20
2019-03-04T19:25:12.592Z,97.20
2019-03-04T19:27:50.539Z,97.20
2019-03-04T19:30:28.218Z,96.70
2019-03-04T19:33:06.338Z,96.30
2019-03-04T19:35:43.820Z,96.00
2019-03-04T19:38:21.002Z,96.40
2019-03-04T19:40:58.446Z,96.30
2019-03-04T19:43:36.453Z,97.00
2019-03-04T19:46:14.066Z,98.00
2019-03-04T19:48:51.516Z,98.60
2019-03-04T19:51:29.593Z,99.10
2019-03-04T19:54:06.923Z,99.90
2019-03-04T19:56:44.618Z,99.90
2019-03-04T19:59:22.449Z,99.90
2019-03-04T20:02:02.253Z,99.90
2019-03-04T20:04:41.154Z,99.90
2019-03-04T20:07:18.621Z,99.90
2019-03-04T20:09:57.102Z,99.90
2019-03-04T20:12:34.618Z,99.90
2019-03-04T20:15:15.950Z,99.90
2019-03-04T20:17:56.503Z,99.90
2019-03-04T20:20:33.744Z,99.90
2019-03-04T20:23:11.730Z,99.90
2019-03-04T20:25:49.701Z,99.90
2019-03-04T20:28:27.229Z,99.90
2019-03-04T20:31:04.883Z,99.90
2019-03-04T20:33:44.928Z,99.90
2019-03-04T20:36:23.267Z,99.90
2019-03-04T20:39:01.196Z,99.90
2019-03-04T20:41:40.688Z,99.90
2019-03-04T20:44:17.881Z,99.90
2019-03-04T20:46:56.636Z,99.90
2019-03-04T20:49:34.062Z,99.90
2019-03-04T20:52:22.923Z,99.90
2019-03-04T20:55:00.397Z,99.90
2019-03-04T20:57:37.722Z,99.90
2019-03-04T21:00:22.442Z,99.90
2019-03-04T21:03:00.342Z,99.90
2019-03-04T21:05:38.949Z,99.90
2019-03-04T21:08:16.562Z,99.90
2019-03-04T21:10:54.660Z,99.90
2019-03-04T21:13:35.831Z,99.90
2019-03-04T21:16:11.786Z,99.90
2019-03-04T21:18:49.208Z,99.90
2019-03-04T21:21:26.868Z,99.90
2019-03-04T21:24:04.453Z,99.90
2019-03-04T21:26:45.666Z,99.90
2019-03-04T21:29:55.020Z,99.90
2019-03-04T21:32:59.681Z,99.90
2019-03-04T21:36:36.258Z,99.90
2019-03-04T21:39:13.878Z,99.90
2019-03-04T21:42:21.957Z,99.90
2019-03-04T21:45:49.721Z,99.90
2019-03-04T21:48:50.146Z,99.90
2019-03-04T21:51:56.165Z,99.90
2019-03-04T21:54:33.969Z,99.90
2019-03-04T21:57:36.028Z,99.90
2019-03-04T22:00:21.169Z,99.90
2019-03-04T22:03:14.811Z,99.90
2019-03-04T22:05:52.827Z,99.90
2019-03-04T22:08:31.353Z,99.90
2019-03-04T22:11:08.957Z,99.90
2019-03-04T22:13:46.763Z,99.90
2019-03-04T22:16:24.210Z,99.90
2019-03-04T22:19:01.762Z,99.90
2019-03-04T22:21:39.218Z,99.90
2019-03-04T22:24:17.746Z,99.90
2019-03-04T22:26:55.360Z,99.90
2019-03-04T22:29:34.395Z,99.90
2019-03-04T22:32:13.063Z,99.90
2019-03-04T22:34:50.628Z,99.90
2019-03-04T22:37:28.217Z,99.90
2019-03-04T22:40:06.879Z,99.90
2019-03-04T22:42:44.456Z,99.90
2019-03-04T22:45:21.912Z,99.90
2019-03-04T22:48:00.350Z,99.90
2019-03-04T22:50:38.169Z,99.90
2019-03-04T22:53:15.586Z,99.90
2019-03-04T22:55:53.320Z,99.90
2019-03-04T22:58:31.209Z,99.90
2019-03-04T23:01:56.738Z,99.90
2019-03-04T23:04:49.402Z,99.90
2019-03-04T23:07:39.562Z,99.90
2019-03-04T23:10:41.770Z,99.90
2019-03-04T23:13:58.541Z,99.90
2019-03-04T23:16:35.826Z,99.90
2019-03-04T23:19:13.472Z,99.90
2019-03-04T23:21:56.836Z,99.90
2019-03-04T23:24:34.272Z,99.90
2019-03-04T23:27:11.544Z,99.90
2019-03-04T23:29:48.918Z,99.90
2019-03-04T23:32:26.096Z,99.90
2019-03-04T23:35:03.393Z,99.90
2019-03-04T23:37:41.743Z,99.90
2019-03-04T23:40:19.417Z,99.90
2019-03-04T23:42:57.016Z,99.90
2019-03-04T23:45:34.224Z,99.90
2019-03-04T23:48:11.415Z,99.90
2019-03-04T23:50:48.749Z,99.90
2019-03-04T23:53:25.945Z,99.90
2019-03-04T23:56:03.439Z,99.90
2019-03-04T23:58:40.839Z,99.90
